Latest Weather Observations for Luncheon Hill

IDT60801

Issued at 11:35 pm EST Tuesday 2 September 2014 (issued every 30 minutes, with the page automatically refreshed every 10 minutes)

About weather observations | Map of weather stations | Latest weather observations for TAS | Other Formats
Station Details ID: 091259 Name: LUNCHEON HILL (FORESTRY) Lat: -41.15 Lon: 145.15 Height: 344.0 m
Data from the previous 72 hours. | See also: Recent months at Luncheon Hill
Date/Time
EST
Temp
°C
App
Temp
°C
Dew
Point
Rel
Hum
%
Delta-T
°C
Wind Press
QNH
hPa
Press
MSL
hPa
Rain
since 9 am
mm
Dir
 
Spd
km/h
Gust
km/h
Spd
kts
Gust
kts
02/11:30pm 3.1 -1.8 2.2 94 0.4 S 17 22 9 12 - - 0.2
02/11:00pm 3.4 -1.9 2.8 96 0.2 S 20 26 11 14 - - 0.2
02/10:30pm 3.4 -1.9 3.0 97 0.2 S 20 32 11 17 - - 0.2
02/10:00pm 3.4 -1.9 3.0 97 0.2 S 20 30 11 16 - - 0.2
02/09:30pm 3.3 -1.4 2.9 97 0.2 S 17 24 9 13 - - 0.2
02/09:00pm 3.3 -1.4 2.9 97 0.2 S 17 24 9 13 - - 0.2
02/08:30pm 3.4 -1.0 2.8 96 0.2 S 15 20 8 11 - - 0.2
02/08:00pm 4.0 -0.7 3.4 96 0.3 S 17 26 9 14 - - 0.2
02/07:30pm 4.3 -0.3 3.6 95 0.3 S 17 24 9 13 - - 0.2
02/07:00pm 4.7 0.2 4.0 95 0.3 S 17 28 9 15 - - 0.2
02/06:30pm 5.5 -0.3 4.5 93 0.4 S 24 35 13 19 - - 0.2
02/06:00pm 5.7 0.5 3.5 86 0.9 S 20 30 11 16 - - 0.2
02/05:30pm 6.8 0.9 3.8 81 1.3 S 24 41 13 22 - - 0.2
02/05:00pm 7.9 2.4 4.1 77 1.7 SSW 22 35 12 19 - - 0.2
02/04:30pm 8.6 1.9 3.4 70 2.3 SSW 28 46 15 25 - - 0.2
02/04:25pm 8.7 1.9 3.3 69 2.4 SSW 28 46 15 25 - - 0.2
02/04:00pm 9.9 4.4 4.1 67 2.6 SSW 22 35 12 19 - - 0.2
02/03:30pm 10.3 4.0 3.8 64 2.9 SSW 26 43 14 23 - - 0.2
02/03:17pm 9.8 2.9 2.6 61 3.1 SSW 28 46 15 25 - - 0.2
02/03:00pm 11.3 5.8 4.1 61 3.3 SSW 22 39 12 21 - - 0.2
02/02:30pm 10.6 3.8 2.9 59 3.4 SSW 28 43 15 23 - - 0.2
02/02:20pm 10.1 3.1 2.2 58 3.4 S 28 48 15 26 - - 0.2
02/02:00pm 10.4 4.8 3.7 63 3.0 S 22 37 12 20 - - 0.2
02/01:30pm 11.1 5.4 4.8 65 2.9 S 24 39 13 21 - - 0.2
02/01:00pm 11.1 5.2 3.9 61 3.3 S 24 39 13 21 - - 0.2
02/12:30pm 10.9 5.3 3.7 61 3.2 SSW 22 41 12 22 - - 0.2
02/12:08pm 10.3 3.5 3.1 61 3.2 S 28 48 15 26 - - 0.2
02/12:00pm 11.5 6.6 5.2 65 2.9 S 20 37 11 20 - - 0.2
02/11:34am 9.9 3.0 2.7 61 3.1 S 28 48 15 26 - - 0.2
02/11:30am 10.1 4.5 3.4 63 3.0 S 22 46 12 25 - - 0.2
02/11:00am 9.8 3.0 2.9 62 3.0 S 28 50 15 27 - - 0.2
02/10:30am 9.3 3.6 3.1 65 2.7 S 22 41 12 22 - - 0.2
02/10:00am 8.6 1.7 2.8 67 2.5 S 28 44 15 24 - - 0.0
02/09:30am 7.9 1.3 2.2 67 2.4 S 26 43 14 23 - - 0.0
02/09:00am 7.3 1.2 2.8 73 1.9 S 24 39 13 21 - - 5.0
02/08:30am 6.2 -0.6 3.0 80 1.4 S 28 41 15 22 - - 5.0
02/08:00am 5.1 -1.0 3.0 86 0.9 S 24 37 13 20 - - 5.0
02/07:30am 4.0 -3.3 2.4 89 0.7 S 30 44 16 24 - - 5.0
02/07:00am 3.1 -3.2 1.8 91 0.5 S 24 39 13 21 - - 5.0
02/06:30am 3.0 -2.5 1.7 91 0.5 S 20 35 11 19 - - 5.0
02/06:00am 3.4 -2.8 2.4 93 0.4 S 24 37 13 20 - - 5.0
02/05:43am 3.4 -3.4 3.0 97 0.2 S 28 48 15 26 - - 5.0
02/05:30am 3.1 -3.0 2.8 98 0.1 S 24 39 13 21 - - 5.0
02/05:00am 2.9 -2.4 2.8 99 0.0 S 20 30 11 16 - - 5.0
02/04:30am 3.2 -2.5 3.1 99 0.0 S 22 28 12 15 - - 5.0
02/04:00am 3.1 -1.6 3.0 99 0.0 S 17 22 9 12 - - 5.0
02/03:30am 3.3 -1.4 3.2 99 0.0 S 17 24 9 13 - - 5.0
02/03:00am 3.6 -1.6 3.5 99 0.0 S 20 28 11 15 - - 5.0
02/02:30am 3.9 -1.3 3.8 99 0.0 S 20 28 11 15 - - 5.0
02/02:00am 4.1 -1.0 4.0 99 0.0 S 20 28 11 15 - - 5.0
02/01:30am 4.1 -0.4 4.0 99 0.0 S 17 24 9 13 - - 5.0
02/01:00am 4.3 -0.6 4.2 99 0.0 S 19 28 10 15 - - 5.0
02/12:30am 4.5 -0.5 4.4 99 0.0 S 20 32 11 17 - - 5.0
02/12:00am 4.9 -0.8 4.8 99 0.0 S 24 35 13 19 - - 4.8
 
Date/Time
EST
Temp
°C
App
Temp
°C
Dew
Point
Rel
Hum
%
Delta-T
°C
Wind Press
QNH
hPa
Press
MSL
hPa
Rain
since 9 am
mm
Dir
 
Spd
km/h
Gust
km/h
Spd
kts
Gust
kts
01/11:30pm 4.8 -0.9 4.7 99 0.0 S 24 32 13 17 - - 4.8
01/11:00pm 4.8 -0.2 4.7 99 0.0 S 20 28 11 15 - - 4.8
01/10:30pm 5.0 0.1 4.9 99 0.0 S 20 32 11 17 - - 4.8
01/10:00pm 5.0 0.0 4.7 98 0.1 S 20 30 11 16 - - 4.8
01/09:30pm 5.0 0.0 4.7 98 0.1 S 20 28 11 15 - - 4.8
01/09:00pm 5.1 0.1 4.8 98 0.1 S 20 28 11 15 - - 4.8
01/08:30pm 5.3 0.4 5.0 98 0.1 SSW 20 28 11 15 - - 4.8
01/08:00pm 5.3 0.5 4.9 97 0.2 S 19 28 10 15 - - 4.8
01/07:30pm 5.7 0.5 5.3 97 0.2 S 22 30 12 16 - - 4.8
01/07:00pm 6.0 1.2 5.6 97 0.2 S 20 32 11 17 - - 4.8
01/06:30pm 6.2 1.0 5.5 95 0.3 S 22 32 12 17 - - 4.8
01/06:00pm 6.5 0.9 5.6 94 0.4 S 24 35 13 19 - - 4.8
01/05:30pm 7.4 1.6 6.3 93 0.5 S 26 35 14 19 - - 4.8
01/05:07pm 7.7 1.6 6.8 94 0.4 SSW 28 46 15 25 - - 4.8
01/05:00pm 8.0 2.8 7.1 94 0.4 SSW 24 46 13 25 - - 4.8
01/04:30pm 8.3 3.2 7.5 95 0.4 S 24 41 13 22 - - 4.8
01/04:00pm 8.6 3.2 7.8 95 0.4 SSW 26 39 14 21 - - 4.8
01/03:30pm 9.5 5.0 8.7 95 0.4 SSW 22 35 12 19 - - 4.8
01/03:00pm 10.0 6.1 9.5 97 0.3 SSW 20 33 11 18 - - 4.4
01/02:30pm 9.2 4.0 8.7 97 0.2 S 26 39 14 21 - - 4.4
01/02:00pm 9.5 5.2 9.4 99 0.1 SSW 22 35 12 19 - - 4.4
01/01:30pm 9.6 5.0 9.5 99 0.1 SSW 24 39 13 21 - - 4.4
01/01:00pm 9.5 5.6 9.4 99 0.1 SSW 20 30 11 16 - - 4.4
01/12:30pm 9.8 6.2 9.7 99 0.1 SSW 19 28 10 15 - - 4.4
01/12:00pm 9.6 5.9 9.5 99 0.1 SSW 19 30 10 16 - - 4.4
01/11:30am 9.7 5.8 9.6 99 0.1 SSW 20 30 11 16 - - 4.4
01/11:00am 9.7 6.8 9.6 99 0.1 SW 15 24 8 13 - - 4.4
01/10:30am 9.9 7.8 9.8 99 0.1 WSW 11 17 6 9 - - 4.2
01/10:00am 10.0 7.2 9.9 99 0.1 W 15 30 8 16 - - 3.4
01/09:30am 10.0 4.7 9.9 99 0.1 NW 28 35 15 19 - - 1.6
01/09:00am 10.2 4.6 10.0 99 0.1 N 30 43 16 23 - - 5.6
01/08:30am 10.2 4.6 10.0 99 0.1 N 30 39 16 21 - - 4.6
01/08:00am 10.3 4.3 10.1 99 0.1 N 32 41 17 22 - - 4.6
01/07:30am 10.3 4.7 10.1 99 0.1 NNE 30 39 16 21 - - 4.6
01/07:00am 10.1 5.6 9.9 99 0.1 NNE 24 32 13 17 - - 4.6
01/06:30am 10.1 5.6 9.9 99 0.1 NE 24 28 13 15 - - 3.6
01/06:00am 10.2 6.5 10.0 99 0.1 NNE 20 26 11 14 - - 3.4
01/05:30am 10.2 7.0 10.0 99 0.1 NNE 17 19 9 10 - - 3.0
01/05:00am 10.2 6.6 10.0 99 0.1 NE 19 24 10 13 - - 3.0
01/04:30am 10.3 7.1 10.1 99 0.1 NNE 17 22 9 12 - - 2.4
01/04:00am 10.4 8.4 10.1 98 0.2 NNE 11 19 6 10 - - 2.2
01/03:30am 10.4 6.8 9.9 97 0.3 NNW 19 28 10 15 - - 2.0
01/03:00am 10.6 6.1 10.0 96 0.3 NNE 24 32 13 17 - - 0.6
01/02:30am 10.7 6.6 10.1 96 0.3 NNE 22 28 12 15 - - 0.6
01/02:00am 10.6 6.1 10.1 97 0.3 N 24 32 13 17 - - 0.6
01/01:30am 10.5 5.6 10.0 97 0.3 NNE 26 32 14 17 - - 0.6
01/01:00am 10.4 4.8 10.1 98 0.2 NE 30 35 16 19 - - 0.6
01/12:30am 10.4 4.8 10.1 98 0.2 NE 30 37 16 20 - - 0.6
01/12:00am 10.3 5.0 10.0 98 0.2 NE 28 37 15 20 - - 0.4
 
Date/Time
EST
Temp
°C
App
Temp
°C
Dew
Point
Rel
Hum
%
Delta-T
°C
Wind Press
QNH
hPa
Press
MSL
hPa
Rain
since 9 am
mm
Dir
 
Spd
km/h
Gust
km/h
Spd
kts
Gust
kts
31/11:30pm 10.3 5.0 10.0 98 0.2 NE 28 35 15 19 - - 0.4
31/11:00pm 10.4 4.2 10.1 98 0.2 ENE 33 41 18 22 - - 0.4
31/10:30pm 10.4 4.8 10.1 98 0.2 ENE 30 39 16 21 - - 0.4
31/10:00pm 10.3 5.3 9.7 96 0.3 ENE 26 32 14 17 - - 0.2
31/09:30pm 10.3 6.0 9.4 94 0.5 NNE 22 28 12 15 - - 0.0
31/09:00pm 10.2 5.2 9.4 95 0.4 ENE 26 33 14 18 - - 0.0
31/08:30pm 10.2 5.1 9.1 93 0.6 ENE 26 33 14 18 - - 0.0
31/08:00pm 10.5 4.6 9.1 91 0.7 ENE 30 39 16 21 - - 0.0
31/07:30pm 10.2 5.0 9.0 92 0.6 ENE 26 35 14 19 - - 0.0
31/07:00pm 10.1 5.3 9.0 93 0.6 ENE 24 32 13 17 - - 0.0
31/06:30pm 10.2 5.5 9.1 93 0.6 ENE 24 35 13 19 - - 0.0
31/06:00pm 10.4 5.7 9.2 92 0.6 ENE 24 32 13 17 - - 0.0
31/05:30pm 10.9 6.6 9.3 90 0.8 ENE 22 30 12 16 - - 0.0
31/05:00pm 11.6 6.2 9.5 87 1.1 ENE 28 35 15 19 - - 0.0
31/04:30pm 12.2 7.3 9.8 85 1.2 ENE 26 35 14 19 - - 0.0
31/04:00pm 12.6 7.3 10.0 84 1.4 NE 28 37 15 20 - - 0.0
31/03:30pm 12.6 6.9 9.8 83 1.5 NE 30 39 16 21 - - 0.0
31/03:00pm 13.3 7.7 10.1 81 1.7 NE 30 35 16 19 - - 0.0
31/02:30pm 13.4 7.4 10.0 80 1.8 NE 32 41 17 22 - - 0.0
31/02:00pm 13.4 7.7 9.8 79 1.9 NE 30 43 16 23 - - 0.0
31/01:30pm 13.2 7.2 10.0 81 1.7 NE 32 41 17 22 - - 0.0
31/01:00pm 13.4 7.5 10.4 82 1.6 NE 32 41 17 22 - - 0.0
31/12:30pm 13.5 9.2 10.7 83 1.5 NE 24 30 13 16 - - 0.0
31/12:00pm 12.6 6.6 10.1 85 1.3 ENE 32 39 17 21 - - 0.0
31/11:30am 12.2 6.1 9.8 85 1.2 NE 32 43 17 23 - - 0.0
31/11:00am 12.1 6.1 10.0 87 1.1 NE 32 46 17 25 - - 0.0
31/10:30am 12.0 6.5 10.4 90 0.8 NE 30 39 16 21 - - 0.0
31/10:00am 11.1 5.9 10.2 94 0.5 ENE 28 41 15 22 - - 0.0
31/09:30am 10.6 5.4 10.1 97 0.3 ENE 28 39 15 21 - - 0.0
31/09:00am 10.1 4.8 9.8 98 0.2 ENE 28 41 15 22 - - 0.2
31/08:30am 9.8 4.8 9.7 99 0.1 ENE 26 39 14 21 - - 0.2
31/08:00am 9.4 4.3 9.3 99 0.1 ENE 26 35 14 19 - - 0.2
31/07:30am 8.9 2.9 8.8 99 0.0 ENE 30 41 16 22 - - 0.2
31/07:00am 8.6 2.6 8.5 99 0.0 ENE 30 39 16 21 - - 0.2
31/06:30am 8.4 2.3 8.3 99 0.0 ENE 30 41 16 22 - - 0.2
31/06:00am 8.4 2.7 8.3 99 0.0 ENE 28 39 15 21 - - 0.2
31/05:30am 8.3 2.9 8.2 99 0.0 ENE 26 35 14 19 - - 0.2
31/05:00am 8.3 2.6 8.2 99 0.0 ENE 28 39 15 21 - - 0.2
31/04:30am 8.5 2.4 8.4 99 0.0 ENE 30 41 16 22 - - 0.2
31/04:00am 8.6 2.9 8.5 99 0.0 ENE 28 37 15 20 - - 0.2
31/03:30am 8.6 2.9 8.5 99 0.0 ENE 28 37 15 20 - - 0.2
31/03:00am 8.6 2.9 8.3 98 0.1 ENE 28 37 15 20 - - 0.2
31/02:30am 8.7 2.6 8.4 98 0.1 ENE 30 35 16 19 - - 0.2
31/02:00am 8.6 1.9 8.2 97 0.2 ENE 33 43 18 23 - - 0.2
31/01:30am 8.7 2.0 8.3 97 0.2 ENE 33 44 18 24 - - 0.2
31/01:00am 8.7 2.6 8.1 96 0.3 ENE 30 41 16 22 - - 0.2
31/12:30am 8.9 2.4 8.3 96 0.3 ENE 32 41 17 22 - - 0.2
31/12:00am 8.8 2.3 8.2 96 0.3 ENE 32 41 17 22 - - 0.2

Other Formats:

Comma delimited format used in spreadsheet applications
http://www.bom.gov.au/fwo/IDT60801/IDT60801.95956.axf

JavaScript Object Notation format (JSON) in row-major order
http://www.bom.gov.au/fwo/IDT60801/IDT60801.95956.json